Time;durP1;ratioP1;P1;durP2;ratioP2;P2;SDS_P1;SDS_P2;PMS_P1;PMS_P2;Temp;Humidity;BMP_temperature;BMP_pressure;BME280_temperature;BME280_humidity;BME280_pressure;Samples;Min_cycle;Max_cycle;Signal;HPM_P1;HPM_P2
2021/06/23 00:01:30;;;;;;;3.87;1.75;;;;;;;18.62;66.25;100914.33;1555128;91;20993;-74
2021/06/23 00:03:57;;;;;;;4.97;1.77;;;;;;;18.53;66.12;100915.55;1563234;91;21003;-74
2021/06/23 00:06:23;;;;;;;2.90;1.45;;;;;;;18.48;66.13;100917.52;1534201;91;21062;-74
2021/06/23 00:08:49;;;;;;;5.23;1.80;;;;;;;18.41;66.09;100917.85;1529092;92;21026;-74
2021/06/23 00:11:16;;;;;;;3.42;1.77;;;;;;;18.33;66.02;100918.19;1538463;92;21715;-74
2021/06/23 00:13:42;;;;;;;6.40;1.72;;;;;;;18.30;65.99;100916.16;1531470;92;20994;-74
2021/06/23 00:16:09;;;;;;;4.17;2.22;;;;;;;18.25;66.03;100924.20;1539941;92;21090;-73
2021/06/23 00:18:37;;;;;;;3.62;1.75;;;;;;;18.25;66.18;100924.20;1532157;91;20986;-74
2021/06/23 00:21:05;;;;;;;2.55;1.70;;;;;;;18.27;66.08;100923.68;1543334;92;21165;-74
2021/06/23 00:23:31;;;;;;;3.87;1.60;;;;;;;18.27;66.01;100921.06;1514838;92;21105;-74
2021/06/23 00:25:57;;;;;;;6.00;1.72;;;;;;;18.28;66.01;100924.07;1569661;87;105716;-73
2021/06/23 00:28:24;;;;;;;3.98;1.60;;;;;;;18.30;66.04;100926.62;1612660;87;21558;-74
2021/06/23 00:30:51;;;;;;;;;;;;;;;18.34;66.00;100924.27;1622469;87;21528;-74
2021/06/23 00:33:21;;;;;;;5.17;1.67;;;;;;;18.36;65.87;100923.28;1616381;87;20326;-74
2021/06/23 00:35:48;;;;;;;4.55;1.35;;;;;;;18.36;65.84;100925.05;1617087;87;21136;-74
2021/06/23 00:38:14;;;;;;;7.42;2.72;;;;;;;18.36;65.87;100927.67;1630029;87;21069;-74
2021/06/23 00:40:41;;;;;;;6.35;1.70;;;;;;;18.38;65.85;100933.69;1619956;87;21124;-74
2021/06/23 00:43:08;;;;;;;4.28;1.32;;;;;;;18.38;65.79;100942.86;1617221;87;21323;-73
2021/06/23 00:45:34;;;;;;;4.75;1.60;;;;;;;18.35;65.79;100946.91;1607304;87;21075;-73
2021/06/23 00:48:06;;;;;;;3.87;2.22;;;;;;;18.33;65.72;100946.98;1631386;87;21348;-73
2021/06/23 00:50:29;;;;;;;3.12;1.75;;;;;;;18.34;65.74;100946.06;1619357;87;21112;-73
2021/06/23 00:52:56;;;;;;;3.05;1.40;;;;;;;18.34;65.72;100943.91;1620040;87;21462;-73
2021/06/23 00:55:24;;;;;;;3.05;1.40;;;;;;;18.29;65.63;100941.48;1609351;87;21097;-73
2021/06/23 00:57:55;;;;;;;3.45;1.27;;;;;;;18.29;65.63;100940.17;1618899;87;21525;-73
2021/06/23 01:00:26;;;;;;;8.15;1.90;;;;;;;18.30;65.74;100943.19;1619657;87;21525;-73
2021/06/23 01:02:53;;;;;;;4.20;1.35;;;;;;;18.33;65.62;100945.67;1621298;87;20962;-73
2021/06/23 01:05:19;;;;;;;;;;;;;;;18.31;65.59;100948.81;1617630;87;20981;-73
2021/06/23 01:07:47;;;;;;;3.65;1.70;;;;;;;18.29;65.45;100952.41;1623621;87;20441;-73
2021/06/23 01:10:14;;;;;;;3.47;1.60;;;;;;;18.26;65.48;100959.09;1603211;88;20967;-73
2021/06/23 01:12:56;;;;;;;;;;;;;;;18.25;65.49;100956.08;1620057;88;20908;-73
2021/06/23 01:15:24;;;;;;;3.60;1.57;;;;;;;18.24;65.50;100955.22;1615521;87;20545;-73
2021/06/23 01:17:51;;;;;;;4.25;1.90;;;;;;;18.24;65.55;100951.30;1597618;86;481628;-73
2021/06/23 01:20:18;;;;;;;4.17;1.37;;;;;;;18.28;65.57;100946.78;1612151;87;20937;-73
2021/06/23 01:22:45;;;;;;;4.58;1.90;;;;;;;18.31;65.54;100951.89;1626167;87;20989;-73
2021/06/23 01:25:14;;;;;;;3.87;1.65;;;;;;;18.33;65.53;100956.60;1635246;87;20934;-73
2021/06/23 01:27:43;;;;;;;3.42;1.30;;;;;;;18.34;65.44;100955.23;1627539;87;20966;-73
2021/06/23 01:30:11;;;;;;;5.47;1.62;;;;;;;18.36;65.50;100963.02;1626885;87;20974;-73
2021/06/23 01:32:38;;;;;;;3.70;1.85;;;;;;;18.36;65.41;100961.71;1627541;87;20887;-73
2021/06/23 01:35:06;;;;;;;3.75;1.55;;;;;;;18.33;65.41;100960.53;1637103;87;20930;-73
2021/06/23 01:37:32;;;;;;;5.78;2.08;;;;;;;18.32;65.45;100959.68;1620004;87;20903;-73
2021/06/23 01:39:59;;;;;;;3.02;1.67;;;;;;;18.30;65.41;100960.66;1612870;87;21029;-73
2021/06/23 01:42:27;;;;;;;3.20;1.72;;;;;;;18.28;65.43;100965.96;1631013;86;20910;-73
2021/06/23 01:44:53;;;;;;;4.17;1.35;;;;;;;18.29;65.55;100955.87;1623955;87;20985;-73
2021/06/23 01:47:20;;;;;;;3.83;1.92;;;;;;;18.29;65.42;100951.95;1621426;87;20938;-73
2021/06/23 01:49:47;;;;;;;5.87;1.60;;;;;;;18.27;65.28;100950.31;1629296;87;21227;-73
2021/06/23 01:52:13;;;;;;;3.90;1.85;;;;;;;18.24;65.22;100952.61;1626098;87;22286;-73
2021/06/23 01:54:44;;;;;;;7.35;2.50;;;;;;;18.21;65.27;100961.89;1626508;87;21038;-73
2021/06/23 01:57:12;;;;;;;4.08;1.82;;;;;;;18.24;65.30;100960.92;1622725;87;21504;-73
2021/06/23 01:59:41;;;;;;;3.40;1.57;;;;;;;18.23;65.18;100957.91;1627346;87;20974;-73
2021/06/23 02:02:24;;;;;;;5.95;1.70;;;;;;;18.15;65.04;100950.41;1618182;87;20962;-73
2021/06/23 02:05:07;;;;;;;3.77;1.67;;;;;;;18.08;65.10;100950.27;1612605;86;21069;-73
2021/06/23 02:08:09;;;;;;;3.47;1.82;;;;;;;18.07;65.24;100957.27;1633882;86;21052;-73
2021/06/23 02:10:52;;;;;;;3.45;1.55;;;;;;;18.10;65.23;100962.83;1614700;86;21525;-73
2021/06/23 02:13:52;;;;;;;6.17;1.85;;;;;;;18.09;65.14;100972.45;1618204;87;20969;-73
2021/06/23 02:16:23;;;;;;;5.90;1.75;;;;;;;18.03;65.20;100976.63;1614758;87;20965;-73
2021/06/23 02:18:49;;;;;;;4.05;1.67;;;;;;;18.04;65.24;100974.86;1644120;86;20916;-73
2021/06/23 02:21:16;;;;;;;9.95;2.92;;;;;;;18.04;65.20;100976.17;1644131;85;20954;-73
2021/06/23 02:23:44;;;;;;;7.80;2.00;;;;;;;18.03;65.23;100970.54;1630320;86;20928;-73
2021/06/23 02:26:12;;;;;;;4.17;2.20;;;;;;;18.02;65.18;100969.69;1632274;86;21000;-73
2021/06/23 02:28:39;;;;;;;4.92;1.92;;;;;;;17.99;65.27;100970.27;1609146;87;20922;-73
2021/06/23 02:31:05;;;;;;;6.22;2.12;;;;;;;17.97;65.24;100975.56;1627764;86;21349;-73
2021/06/23 02:33:32;;;;;;;10.08;2.50;;;;;;;17.99;65.35;100982.89;1611575;87;20897;-73
2021/06/23 02:35:58;;;;;;;4.83;2.17;;;;;;;18.01;65.25;100980.22;1611600;87;20937;-73
2021/06/23 02:38:25;;;;;;;5.40;2.08;;;;;;;17.96;65.20;100969.09;1625353;86;20958;-73
2021/06/23 02:40:52;;;;;;;;;;;;;;;17.89;65.23;100964.56;1644396;86;21397;-73
2021/06/23 02:43:20;;;;;;;6.90;2.22;;;;;;;17.90;65.62;100972.80;1636791;86;20108;-73
2021/06/23 02:45:47;;;;;;;6.78;2.25;;;;;;;17.92;65.45;100963.59;1619607;87;20996;-73
2021/06/23 02:48:14;;;;;;;7.42;2.47;;;;;;;17.93;65.40;100963.52;1636626;86;20923;-73
2021/06/23 02:50:48;;;;;;;5.72;2.33;;;;;;;17.94;65.39;100957.83;1630814;86;26717;-73
2021/06/23 02:53:15;;;;;;;6.22;2.33;;;;;;;17.93;65.49;100953.05;1628144;87;21289;-73
2021/06/23 02:55:43;;;;;;;7.08;2.67;;;;;;;17.97;65.53;100964.25;1617066;87;20977;-73
2021/06/23 02:58:12;;;;;;;4.53;2.37;;;;;;;17.96;65.46;100959.47;1628414;87;20906;-74
2021/06/23 03:00:38;;;;;;;6.92;2.10;;;;;;;17.97;65.56;100959.87;1629176;86;20916;-74
2021/06/23 03:03:05;;;;;;;4.20;2.10;;;;;;;17.99;65.55;100965.89;1626783;86;21425;-73
2021/06/23 03:05:31;;;;;;;6.15;2.20;;;;;;;18.04;65.61;100969.17;1636800;85;20911;-73
2021/06/23 03:07:58;;;;;;;5.83;2.50;;;;;;;18.06;65.59;100978.27;1638465;86;21470;-73
2021/06/23 03:10:24;;;;;;;3.58;1.92;;;;;;;18.09;65.61;100972.45;1611230;87;20923;-73
2021/06/23 03:12:50;;;;;;;7.33;2.67;;;;;;;18.10;65.57;100964.99;1605162;88;20961;-73
2021/06/23 03:15:17;;;;;;;8.23;2.52;;;;;;;18.09;65.61;100978.14;1598533;88;20994;-73
2021/06/23 03:17:43;;;;;;;8.18;2.50;;;;;;;18.12;65.73;100980.63;1635150;86;21330;-74
2021/06/23 03:20:11;;;;;;;6.47;2.15;;;;;;;18.14;65.75;100989.27;1616255;88;20899;-73
2021/06/23 03:22:37;;;;;;;8.53;2.45;;;;;;;18.17;65.79;100990.00;1607594;88;20966;-73
2021/06/23 03:25:05;;;;;;;10.18;2.90;;;;;;;18.22;65.78;100994.16;1623511;85;20895;-73
2021/06/23 03:27:32;;;;;;;8.05;2.70;;;;;;;18.22;65.77;101004.62;1613681;88;21498;-73
2021/06/23 03:29:58;;;;;;;4.75;2.10;;;;;;;18.23;65.76;101008.95;1615315;88;21398;-73
2021/06/23 03:32:25;;;;;;;10.38;2.27;;;;;;;18.22;65.60;101012.48;1624284;87;20926;-73
2021/06/23 03:34:51;;;;;;;5.90;2.40;;;;;;;18.19;65.82;101009.11;1620044;87;21037;-73
2021/06/23 03:37:17;;;;;;;6.10;2.52;;;;;;;18.22;65.86;101012.48;1628546;86;21615;-73
2021/06/23 03:39:44;;;;;;;3.70;1.95;;;;;;;18.21;65.87;101011.63;1619966;86;21141;-73
2021/06/23 03:42:10;;;;;;;5.67;2.12;;;;;;;18.23;65.87;101025.51;1614916;87;21061;-73
2021/06/23 03:44:37;;;;;;;10.00;2.30;;;;;;;18.24;65.91;101023.28;1611428;87;21545;-73
2021/06/23 03:47:04;;;;;;;6.05;2.55;;;;;;;18.28;65.98;101026.17;1628675;86;21250;-73
2021/06/23 03:49:31;;;;;;;9.95;2.98;;;;;;;18.34;65.97;101030.30;1610618;88;21016;-73
2021/06/23 03:51:57;;;;;;;6.10;3.00;;;;;;;18.37;65.98;101034.95;1608666;87;22146;-73
2021/06/23 03:54:23;;;;;;;6.45;2.60;;;;;;;18.42;66.01;101034.31;1625537;86;21608;-73
2021/06/23 03:56:50;;;;;;;7.25;2.62;;;;;;;18.57;66.02;101047.22;1615420;88;21113;-73
2021/06/23 03:59:16;;;;;;;7.40;2.70;;;;;;;18.57;66.02;101047.22;1616379;88;21081;-73
2021/06/23 04:01:42;;;;;;;6.47;2.33;;;;;;;18.63;66.12;101044.38;1614882;87;20989;-73
2021/06/23 04:04:09;;;;;;;9.03;2.35;;;;;;;18.67;66.01;101045.95;1637175;86;21072;-73
2021/06/23 04:06:35;;;;;;;8.60;2.98;;;;;;;18.73;65.93;101043.50;1624432;86;21004;-73
2021/06/23 04:09:01;;;;;;;9.70;2.60;;;;;;;18.73;66.11;101036.48;1637973;86;21057;-73
2021/06/23 04:11:28;;;;;;;5.80;1.92;;;;;;;18.79;66.13;101037.53;1637526;86;21108;-73
2021/06/23 04:13:54;;;;;;;7.20;2.62;;;;;;;18.93;66.15;101036.09;1627388;87;21132;-73
2021/06/23 04:16:20;;;;;;;6.35;2.20;;;;;;;19.08;66.25;101034.10;1629007;86;21092;-73
2021/06/23 04:18:47;;;;;;;6.15;2.25;;;;;;;19.17;66.05;101046.34;1629894;87;21001;-73
2021/06/23 04:21:13;;;;;;;7.05;2.42;;;;;;;19.24;66.04;101055.22;1623203;87;21597;-74
2021/06/23 04:23:39;;;;;;;4.55;2.45;;;;;;;19.32;66.04;101059.19;1627427;87;21020;-74
2021/06/23 04:26:05;;;;;;;7.60;2.85;;;;;;;19.40;66.01;101064.95;1626283;86;21113;-74
2021/06/23 04:28:32;;;;;;;6.92;2.30;;;;;;;19.41;66.03;101064.03;1625904;87;21089;-74
2021/06/23 04:30:58;;;;;;;4.65;2.20;;;;;;;19.44;65.93;101070.45;1626126;86;21001;-74
2021/06/23 04:33:24;;;;;;;8.38;2.50;;;;;;;19.50;65.96;101077.19;1624662;86;20878;-74
2021/06/23 04:35:51;;;;;;;7.35;2.37;;;;;;;19.52;65.87;101082.39;1625255;86;21013;-74
2021/06/23 04:38:18;;;;;;;12.73;2.65;;;;;;;19.56;65.92;101076.94;1625530;87;27573;-74
2021/06/23 04:40:44;;;;;;;4.90;2.85;;;;;;;19.60;65.90;101077.19;1625057;86;136441;-74
2021/06/23 04:43:11;;;;;;;8.73;2.60;;;;;;;19.67;65.99;101086.48;1631251;86;22283;-74
2021/06/23 04:45:37;;;;;;;7.83;2.80;;;;;;;19.72;65.94;101085.81;1631622;86;21626;-74
2021/06/23 04:48:04;;;;;;;7.58;2.30;;;;;;;19.75;65.93;101090.06;1629365;86;21125;-74
2021/06/23 04:50:31;;;;;;;8.08;2.70;;;;;;;19.79;65.88;101091.13;1630325;86;20945;-74
2021/06/23 04:52:57;;;;;;;7.78;2.10;;;;;;;19.82;65.81;101087.52;1628245;86;21038;-74
2021/06/23 04:55:24;;;;;;;11.22;2.67;;;;;;;19.79;65.79;101085.88;1630065;86;21587;-74
2021/06/23 04:57:50;;;;;;;9.75;2.25;;;;;;;19.73;65.61;101068.30;1626890;86;21080;-74
2021/06/23 05:00:19;;;;;;;5.22;2.10;;;;;;;19.82;65.69;101090.98;1639228;86;20961;-74
2021/06/23 05:02:45;;;;;;;5.72;2.20;;;;;;;19.81;65.73;101098.93;1633793;86;20957;-74
2021/06/23 05:05:12;;;;;;;9.20;2.00;;;;;;;19.83;65.70;101103.19;1642550;86;21423;-74
2021/06/23 05:07:38;;;;;;;8.15;2.30;;;;;;;19.87;65.73;101109.14;1621503;86;21743;-74
2021/06/23 05:10:05;;;;;;;8.10;2.60;;;;;;;19.98;65.82;101116.52;1614483;87;21561;-74
2021/06/23 05:12:31;;;;;;;;;;;;;;;20.11;65.74;101118.96;1624914;87;21053;-74
2021/06/23 05:14:58;;;;;;;6.12;2.10;;;;;;;20.15;65.53;101120.52;1615745;88;20179;-74
2021/06/23 05:17:25;;;;;;;5.92;1.95;;;;;;;20.25;65.56;101119.16;1614903;87;26894;-74
2021/06/23 05:19:52;;;;;;;6.30;2.20;;;;;;;20.34;65.50;101113.89;1617340;88;21434;-74
2021/06/23 05:22:18;;;;;;;9.13;2.15;;;;;;;20.37;65.40;101104.08;1610193;88;21024;-74
2021/06/23 05:24:45;;;;;;;5.25;2.27;;;;;;;20.42;65.44;101106.52;1621184;87;21494;-74
2021/06/23 05:27:12;;;;;;;7.15;2.30;;;;;;;20.54;65.46;101109.02;1594302;88;21098;-75
2021/06/23 05:29:39;;;;;;;5.92;2.05;;;;;;;20.64;65.35;101112.88;1592296;88;21549;-74
2021/06/23 05:32:06;;;;;;;11.33;2.85;;;;;;;20.71;65.42;101119.53;1615743;88;21478;-74
2021/06/23 05:34:33;;;;;;;5.12;1.95;;;;;;;20.78;65.36;101129.67;1617904;85;21484;-74
2021/06/23 05:36:59;;;;;;;6.58;2.47;;;;;;;20.86;65.28;101127.09;1635201;86;21438;-74
2021/06/23 05:39:26;;;;;;;6.85;2.40;;;;;;;20.94;65.18;101127.55;1612606;87;21434;-75
2021/06/23 05:41:53;;;;;;;;;;;;;;;21.04;65.12;101141.93;1630313;87;21395;-75
2021/06/23 05:44:19;;;;;;;7.35;1.75;;;;;;;21.12;64.83;101144.55;1593752;89;20104;-75
2021/06/23 05:46:45;;;;;;;4.80;1.87;;;;;;;21.22;64.95;101148.91;1594752;88;21329;-75
2021/06/23 05:49:11;;;;;;;5.97;2.40;;;;;;;21.23;64.68;101150.61;1598801;88;21534;-75
2021/06/23 05:51:38;;;;;;;7.25;2.10;;;;;;;21.21;64.82;101153.79;1614039;87;21434;-75
2021/06/23 05:54:04;;;;;;;7.37;2.08;;;;;;;21.30;64.81;101157.26;1616029;87;21561;-75
2021/06/23 05:56:31;;;;;;;11.63;2.22;;;;;;;21.47;64.82;101155.03;1617062;87;21406;-75
2021/06/23 05:58:57;;;;;;;9.18;2.58;;;;;;;21.62;64.60;101159.95;1620305;87;21406;-74
2021/06/23 06:01:24;;;;;;;6.00;2.15;;;;;;;21.63;64.42;101165.14;1618556;87;21407;-74
2021/06/23 06:03:51;;;;;;;6.05;2.15;;;;;;;21.66;64.35;101164.12;1621999;86;21652;-75
2021/06/23 06:06:17;;;;;;;9.35;2.45;;;;;;;21.74;64.30;101173.31;1618130;86;27185;-75
2021/06/23 06:08:44;;;;;;;6.22;2.00;;;;;;;21.92;64.44;101178.49;1630014;86;21493;-75
2021/06/23 06:11:10;;;;;;;8.10;2.15;;;;;;;22.17;64.36;101180.20;1632083;86;21559;-75
2021/06/23 06:13:36;;;;;;;5.25;2.20;;;;;;;22.51;64.32;101173.02;1631601;87;21144;-75
2021/06/23 06:16:03;;;;;;;4.75;2.08;;;;;;;22.88;64.12;101181.84;1635392;87;21610;-75
2021/06/23 06:18:33;;;;;;;7.28;2.20;;;;;;;23.47;64.18;101184.48;1620957;87;21491;-74
2021/06/23 06:21:00;;;;;;;9.03;2.67;;;;;;;24.05;63.99;101182.59;1630388;87;21068;-75
2021/06/23 06:23:27;;;;;;;8.85;2.25;;;;;;;24.45;63.56;101180.52;1629844;87;21485;-75
2021/06/23 06:25:53;;;;;;;5.22;2.10;;;;;;;24.86;63.46;101181.77;1625148;87;21540;-75
2021/06/23 06:28:21;;;;;;;9.20;2.22;;;;;;;25.22;63.30;101179.30;1623804;86;21717;-75
2021/06/23 06:30:47;;;;;;;9.13;2.98;;;;;;;25.50;62.83;101179.55;1628516;87;21540;-75
2021/06/23 06:33:14;;;;;;;5.35;2.20;;;;;;;25.69;62.65;101186.62;1631343;86;21056;-75
2021/06/23 06:35:41;;;;;;;7.00;1.82;;;;;;;25.82;62.59;101187.08;1636529;86;21124;-74
2021/06/23 06:38:07;;;;;;;12.63;1.90;;;;;;;26.07;62.44;101185.67;1625373;86;21069;-75
2021/06/23 06:40:34;;;;;;;9.13;2.45;;;;;;;26.25;62.21;101187.00;1635251;86;21080;-75
2021/06/23 06:43:00;;;;;;;8.43;2.15;;;;;;;26.33;61.80;101195.77;1641841;86;21580;-74
2021/06/23 06:45:27;;;;;;;7.28;2.25;;;;;;;26.24;61.48;101185.31;1626752;86;21072;-74
2021/06/23 06:47:53;;;;;;;;;;;;;;;25.99;61.21;101184.08;1641972;86;21657;-75
2021/06/23 06:50:19;;;;;;;6.17;2.12;;;;;;;25.90;60.25;101184.26;1647274;86;20196;-74
2021/06/23 06:52:45;;;;;;;6.55;2.27;;;;;;;25.89;60.86;101174.61;1639047;86;21065;-74
2021/06/23 06:55:20;;;;;;;7.28;1.80;;;;;;;25.87;60.70;101178.33;1640094;86;21682;-75
2021/06/23 06:57:40;;;;;;;7.72;1.87;;;;;;;26.06;60.43;101181.33;1609209;87;21550;-75
2021/06/23 07:00:08;;;;;;;4.55;1.62;;;;;;;26.06;60.43;101181.33;1633838;86;20993;-75
2021/06/23 07:02:35;;;;;;;6.33;2.33;;;;;;;26.10;59.89;101182.80;1630495;86;20984;-75
2021/06/23 07:05:01;;;;;;;6.33;1.87;;;;;;;26.16;59.86;101182.84;1641089;86;21745;-75
2021/06/23 07:07:28;;;;;;;5.40;1.60;;;;;;;26.40;59.72;101177.12;1603413;87;21082;-75
2021/06/23 07:09:54;;;;;;;6.55;1.70;;;;;;;26.69;59.25;101180.25;1614625;87;21160;-75
2021/06/23 07:12:20;;;;;;;6.05;1.92;;;;;;;26.87;59.01;101191.30;1613488;87;21093;-75
2021/06/23 07:14:46;;;;;;;8.28;2.02;;;;;;;27.15;58.68;101198.02;1626996;86;21675;-75
2021/06/23 07:17:13;;;;;;;5.08;1.90;;;;;;;27.29;58.30;101202.64;1620957;86;21152;-76
2021/06/23 07:19:39;;;;;;;4.10;2.17;;;;;;;27.54;58.35;101202.93;1619297;87;21089;-74
2021/06/23 07:22:06;;;;;;;7.95;1.90;;;;;;;27.80;58.08;101196.91;1621451;86;21981;-74
2021/06/23 07:24:33;;;;;;;3.72;1.95;;;;;;;28.02;57.73;101196.05;1628356;86;20923;-74
2021/06/23 07:27:00;;;;;;;7.35;2.00;;;;;;;28.14;57.54;101203.50;1616711;88;21301;-74
2021/06/23 07:29:27;;;;;;;;;;;;;;;28.40;57.56;101202.27;1620978;87;20963;-74
2021/06/23 07:36:30;;;;;;;4.03;1.70;;;;;;;28.95;57.21;101206.55;1618112;87;20956;-74
2021/06/23 07:36:54;;;;;;;8.18;1.98;;;;;;;29.24;56.96;101208.54;1613109;88;21074;-74
2021/06/23 07:39:19;;;;;;;4.28;1.60;;;;;;;29.32;56.72;101208.73;1615691;86;21148;-74
2021/06/23 07:41:48;;;;;;;7.55;2.52;;;;;;;29.48;56.80;101210.97;1609959;88;20934;-74
2021/06/23 07:44:18;;;;;;;14.18;2.52;;;;;;;29.69;56.38;101210.41;1626438;86;21381;-74
2021/06/23 07:46:53;;;;;;;5.65;2.22;;;;;;;29.74;56.09;101209.52;1614892;88;21014;-74
2021/06/23 07:49:16;;;;;;;5.12;2.00;;;;;;;29.92;55.92;101211.07;1599057;88;20879;-74
2021/06/23 07:56:55;;;;;;;3.95;1.70;;;;;;;30.49;54.34;101208.20;1611485;88;20994;-74
2021/06/23 08:10:10;;;;;;;4.62;1.82;;;;;;;29.68;52.43;101218.05;1635162;86;20962;-74
2021/06/23 08:12:54;;;;;;;2.67;1.52;;;;;;;29.43;51.96;101211.84;1628273;86;20930;-74
2021/06/23 08:15:20;;;;;;;;;;;;;;;29.48;52.09;101210.48;1630867;86;20930;-74
2021/06/23 08:17:46;;;;;;;4.90;1.70;;;;;;;29.54;50.84;101205.11;1631562;86;20144;-74
2021/06/23 08:20:13;;;;;;;9.10;1.80;;;;;;;29.52;51.29;101214.56;1624750;86;20973;-74
2021/06/23 08:22:40;;;;;;;3.58;1.55;;;;;;;29.33;50.83;101209.09;1630859;86;20970;-74
2021/06/23 08:25:07;;;;;;;3.37;1.50;;;;;;;29.27;50.79;101214.94;1633308;86;20921;-74
2021/06/23 08:27:33;;;;;;;5.28;1.87;;;;;;;29.22;50.13;101209.16;1630384;86;20926;-74
2021/06/23 08:29:59;;;;;;;3.72;1.50;;;;;;;29.13;50.45;101208.61;1630689;86;20989;-75
2021/06/23 08:32:26;;;;;;;8.05;2.62;;;;;;;29.11;50.04;101215.42;1639856;86;20957;-75
2021/06/23 08:34:52;;;;;;;5.45;2.02;;;;;;;29.13;49.89;101218.77;1628485;86;20930;-75
2021/06/23 08:37:19;;;;;;;6.80;2.33;;;;;;;29.14;49.67;101221.80;1630067;87;21397;-75
2021/06/23 08:39:45;;;;;;;5.37;1.85;;;;;;;29.12;49.46;101225.08;1628395;87;20981;-75
2021/06/23 08:42:11;;;;;;;3.05;1.60;;;;;;;28.96;49.15;101210.90;1620531;87;20909;-73
2021/06/23 08:44:38;;;;;;;4.10;2.35;;;;;;;28.77;48.88;101208.53;1633013;87;20934;-75
2021/06/23 08:47:04;;;;;;;8.63;2.40;;;;;;;28.50;48.73;101211.19;1626593;86;20998;-75
2021/06/23 08:49:31;;;;;;;5.47;2.15;;;;;;;28.33;48.78;101209.05;1633654;86;20927;-75
2021/06/23 08:51:58;;;;;;;8.48;1.92;;;;;;;28.21;48.41;101218.87;1637717;86;20961;-75
2021/06/23 08:54:29;;;;;;;5.58;1.95;;;;;;;28.11;48.38;101214.38;1630745;86;20970;-75
2021/06/23 08:56:55;;;;;;;6.45;2.02;;;;;;;28.15;48.21;101209.17;1637588;86;20951;-75
2021/06/23 08:59:21;;;;;;;5.30;2.15;;;;;;;28.28;47.96;101212.57;1627961;86;26376;-75
2021/06/23 09:01:49;;;;;;;9.23;2.00;;;;;;;28.60;48.02;101223.23;1633177;86;20930;-75
2021/06/23 09:04:17;;;;;;;6.85;1.60;;;;;;;29.24;47.96;101221.38;1637094;86;20914;-74
2021/06/23 09:06:56;;;;;;;5.20;2.30;;;;;;;29.89;47.73;101222.85;1621945;86;20917;-75
2021/06/23 09:09:35;;;;;;;4.87;2.12;;;;;;;30.42;47.53;101221.25;1617386;87;20978;-75
2021/06/23 09:12:08;;;;;;;5.17;2.15;;;;;;;30.87;47.23;101217.56;1622978;87;21422;-74
2021/06/23 09:14:39;;;;;;;4.65;1.87;;;;;;;31.27;47.27;101221.89;1616806;87;20926;-74
2021/06/23 09:17:14;;;;;;;4.22;1.57;;;;;;;31.73;47.06;101219.72;1623464;86;20998;-74
2021/06/23 09:19:51;;;;;;;4.05;1.70;;;;;;;31.75;46.77;101222.25;1617106;88;20970;-74
2021/06/23 09:22:47;;;;;;;4.65;1.98;;;;;;;31.48;46.61;101225.22;1629169;86;21410;-74
2021/06/23 09:25:22;;;;;;;4.87;1.82;;;;;;;31.07;46.23;101225.57;1614654;88;20974;-75
2021/06/23 09:27:59;;;;;;;3.65;1.57;;;;;;;29.95;46.20;101230.31;1624732;86;21357;-75
2021/06/23 09:30:41;;;;;;;5.12;1.80;;;;;;;29.35;46.21;101223.13;1610278;88;20963;-75
2021/06/23 09:33:25;;;;;;;4.33;1.95;;;;;;;28.89;45.96;101215.53;1616572;88;21057;-75
2021/06/23 09:36:03;;;;;;;3.25;1.70;;;;;;;28.55;45.53;101223.64;1615593;88;21073;-75
2021/06/23 09:38:39;;;;;;;5.12;2.17;;;;;;;28.15;45.49;101215.34;1621046;86;21125;-75
2021/06/23 09:41:20;;;;;;;4.85;2.17;;;;;;;28.03;45.33;101208.38;1629210;86;21344;-75
2021/06/23 09:43:50;;;;;;;4.62;2.15;;;;;;;27.88;44.89;101209.11;1590608;88;20975;-74
2021/06/23 09:46:40;;;;;;;4.03;2.30;;;;;;;27.67;44.93;101197.02;1622083;87;20890;-73
2021/06/23 09:49:26;;;;;;;6.95;2.17;;;;;;;27.63;44.74;101207.53;1611619;88;20973;-74
2021/06/23 09:51:54;;;;;;;;;;;;;;;27.53;44.64;101192.42;1632953;86;20972;-74
2021/06/23 09:54:24;;;;;;;4.42;2.17;;;;;;;27.44;44.28;101191.80;1621292;86;20114;-74
2021/06/23 09:56:51;;;;;;;4.25;1.75;;;;;;;27.24;44.40;101188.88;1616621;88;21022;-74
2021/06/23 09:59:39;;;;;;;5.42;2.37;;;;;;;27.19;44.44;101192.84;1617169;88;21014;-74
2021/06/23 10:02:04;;;;;;;;;;;;;;;27.16;44.44;101193.92;1613359;88;20903;-74
2021/06/23 10:04:35;;;;;;;;;;;;;;;27.22;44.25;101196.59;1612170;88;20113;-73
2021/06/23 10:07:03;;;;;;;;;;;;;;;27.13;44.19;101207.91;1629719;87;20575;-74
2021/06/23 10:09:31;;;;;;;;;;;;;;;27.11;44.17;101209.84;1633272;86;20129;-73
2021/06/23 10:12:03;;;;;;;;;;;;;;;26.98;43.68;101211.27;1631238;86;20121;-74
2021/06/23 10:14:32;;;;;;;;;;;;;;;26.87;44.00;101219.16;1633688;86;20112;-74
2021/06/23 10:17:02;;;;;;;;;;;;;;;26.67;43.87;101223.29;1626291;86;20165;-74
2021/06/23 10:19:28;;;;;;;;;;;;;;;26.55;43.98;101217.55;1613637;89;21812;-74
2021/06/23 10:21:56;;;;;;;;;;;;;;;26.54;44.16;101217.19;1613569;88;20125;-74
2021/06/23 10:24:23;;;;;;;;;;;;;;;26.56;44.09;101222.75;1607478;89;20163;-74
2021/06/23 10:26:52;;;;;;;;;;;;;;;26.68;44.10;101223.66;1617938;86;20195;-74
2021/06/23 10:29:32;;;;;;;;;;;;;;;26.70;43.87;101221.73;1628258;87;20981;-74
2021/06/23 10:32:01;;;;;;;;;;;;;;;26.85;44.11;101227.72;1636821;86;20436;-74
2021/06/23 10:34:27;;;;;;;;;;;;;;;27.01;44.11;101226.49;1612562;88;20131;-74
2021/06/23 10:36:55;;;;;;;;;;;;;;;27.06;43.92;101225.27;1628455;86;20131;-74
2021/06/23 10:39:22;;;;;;;;;;;;;;;27.02;44.07;101222.03;1612495;88;20187;-74
2021/06/23 10:41:54;;;;;;;;;;;;;;;27.00;44.10;101219.97;1631071;86;20186;-74
2021/06/23 10:44:27;;;;;;;;;;;;;;;27.00;43.96;101215.98;1634150;86;20187;-73
2021/06/23 10:46:56;;;;;;;;;;;;;;;26.82;43.76;101219.98;1635945;86;20188;-74
2021/06/23 10:49:40;;;;;;;;;;;;;;;26.70;44.17;101210.64;1608505;89;20463;-74
2021/06/23 10:52:30;;;;;;;;;;;;;;;26.70;44.15;101210.64;1634647;86;20223;-74
2021/06/23 10:54:59;;;;;;;;;;;;;;;26.64;43.87;101207.59;1608567;88;20227;-74
2021/06/23 10:57:32;;;;;;;;;;;;;;;26.56;44.16;101207.31;1633173;86;39822;-73
2021/06/23 11:00:00;;;;;;;;;;;;;;;26.55;44.10;101202.97;1606559;88;20408;-73
2021/06/23 11:02:40;;;;;;;;;;;;;;;26.50;44.06;101202.01;1612131;88;20116;-73
2021/06/23 11:05:15;;;;;;;;;;;;;;;26.44;43.99;101197.63;1606054;89;20163;-74
2021/06/23 11:07:55;;;;;;;;;;;;;;;26.37;44.04;101198.56;1607447;88;20102;-74
2021/06/23 11:10:34;;;;;;;;;;;;;;;26.23;44.16;101195.55;1635568;86;20116;-74
2021/06/23 11:13:02;;;;;;;;;;;;;;;26.21;44.28;101188.18;1630978;87;20136;-74
2021/06/23 11:15:35;;;;;;;;;;;;;;;26.26;44.29;101187.85;1633676;86;20136;-74
2021/06/23 11:18:24;;;;;;;;;;;;;;;26.25;43.96;101189.66;1627742;86;20090;-74
2021/06/23 11:20:57;;;;;;;;;;;;;;;26.13;44.15;101187.89;1600501;89;20479;-74
2021/06/23 11:23:47;;;;;;;;;;;;;;;26.16;44.27;101181.52;1612734;87;20163;-74
2021/06/23 11:26:23;;;;;;;;;;;;;;;26.18;44.33;101175.63;1639016;86;20113;-74
2021/06/23 11:28:51;;;;;;;;;;;;;;;26.24;44.21;101175.19;1646445;86;20101;-73
2021/06/23 11:31:17;;;;;;;;;;;;;;;26.16;44.24;101181.52;1642683;86;20109;-73
2021/06/23 11:33:44;;;;;;;;;;;;;;;26.02;44.19;101173.23;1636003;86;20130;-73
2021/06/23 11:36:13;;;;;;;;;;;;;;;25.98;44.22;101176.61;1607307;89;20353;-73
2021/06/23 11:38:40;;;;;;;;;;;;;;;25.93;44.25;101181.39;1635552;86;20108;-73
2021/06/23 11:41:08;;;;;;;;;;;;;;;25.88;44.56;101182.67;1633793;86;20117;-73
2021/06/23 11:43:34;;;;;;;;;;;;;;;25.87;44.53;101171.70;1634262;86;20136;-73
2021/06/23 11:46:01;;;;;;;;;;;;;;;25.95;44.64;101164.05;1636527;86;20134;-73
2021/06/23 11:48:27;;;;;;;;;;;;;;;26.07;44.60;101155.20;1637711;86;20140;-73
2021/06/23 11:50:54;;;;;;;;;;;;;;;26.19;44.45;101162.73;1627120;86;20269;-73
2021/06/23 11:53:22;;;;;;;;;;;;;;;26.25;44.44;101162.30;1643994;86;20097;-73
2021/06/23 11:55:50;;;;;;;;;;;;;;;26.43;44.53;101165.44;1635100;86;20186;-73
2021/06/23 11:58:16;;;;;;;;;;;;;;;26.62;44.57;101168.39;1626049;86;20227;-73
2021/06/23 12:00:43;;;;;;;;;;;;;;;26.70;44.38;101164.69;1639947;86;20430;-73
2021/06/23 12:03:11;;;;;;;;;;;;;;;26.80;44.40;101169.67;1636540;86;20129;-73
2021/06/23 12:05:38;;;;;;;;;;;;;;;26.91;44.66;101172.37;1609454;88;20206;-73